sensor_id;sensor_type;location;lat;lon;timestamp;pressure;altitude;pressure_sealevel;temperature;humidity
32320;BME280;19080;51.750;5.888;2023-07-29T00:01:42;100499.09;;;17.20;100.00
32320;BME280;19080;51.750;5.888;2023-07-29T00:04:09;100512.38;;;17.28;100.00
32320;BME280;19080;51.750;5.888;2023-07-29T00:06:36;100497.22;;;17.25;100.00
32320;BME280;19080;51.750;5.888;2023-07-29T00:09:03;100470.75;;;17.04;100.00
32320;BME280;19080;51.750;5.888;2023-07-29T00:11:29;100506.28;;;17.18;100.00
32320;BME280;19080;51.750;5.888;2023-07-29T00:13:56;100501.03;;;17.10;100.00
32320;BME280;19080;51.750;5.888;2023-07-29T00:16:23;100484.25;;;16.99;100.00
32320;BME280;19080;51.750;5.888;2023-07-29T00:18:51;100486.00;;;17.00;100.00
32320;BME280;19080;51.750;5.888;2023-07-29T00:21:18;100472.63;;;16.99;100.00
32320;BME280;19080;51.750;5.888;2023-07-29T00:23:45;100469.06;;;16.98;100.00
32320;BME280;19080;51.750;5.888;2023-07-29T00:26:11;100475.22;;;17.05;100.00
32320;BME280;19080;51.750;5.888;2023-07-29T00:28:38;100430.03;;;16.82;100.00
32320;BME280;19080;51.750;5.888;2023-07-29T00:31:05;100439.78;;;16.86;100.00
32320;BME280;19080;51.750;5.888;2023-07-29T00:33:33;100445.13;;;16.87;100.00
32320;BME280;19080;51.750;5.888;2023-07-29T00:36:00;100436.16;;;16.88;100.00
32320;BME280;19080;51.750;5.888;2023-07-29T00:38:29;100435.19;;;16.92;100.00
32320;BME280;19080;51.750;5.888;2023-07-29T00:41:01;100458.13;;;17.10;100.00
32320;BME280;19080;51.750;5.888;2023-07-29T00:43:28;100429.63;;;17.05;100.00
32320;BME280;19080;51.750;5.888;2023-07-29T00:45:55;100443.72;;;17.16;100.00
32320;BME280;19080;51.750;5.888;2023-07-29T00:48:24;100449.19;;;17.10;100.00
32320;BME280;19080;51.750;5.888;2023-07-29T00:50:51;100442.91;;;17.12;100.00
32320;BME280;19080;51.750;5.888;2023-07-29T00:53:18;100370.47;;;16.65;100.00
32320;BME280;19080;51.750;5.888;2023-07-29T00:55:45;100430.47;;;17.07;100.00
32320;BME280;19080;51.750;5.888;2023-07-29T00:58:12;100438.59;;;17.04;100.00
32320;BME280;19080;51.750;5.888;2023-07-29T01:00:39;100458.78;;;17.23;100.00
32320;BME280;19080;51.750;5.888;2023-07-29T01:03:06;100454.31;;;17.23;100.00
32320;BME280;19080;51.750;5.888;2023-07-29T01:08:33;100452.56;;;17.21;100.00
32320;BME280;19080;51.750;5.888;2023-07-29T01:13:54;100402.97;;;16.96;100.00
32320;BME280;19080;51.750;5.888;2023-07-29T01:16:31;100442.81;;;17.17;100.00
32320;BME280;19080;51.750;5.888;2023-07-29T01:19:05;100454.34;;;17.22;100.00
32320;BME280;19080;51.750;5.888;2023-07-29T01:21:35;100444.59;;;17.18;100.00
32320;BME280;19080;51.750;5.888;2023-07-29T01:24:04;100422.44;;;17.07;100.00
32320;BME280;19080;51.750;5.888;2023-07-29T01:26:31;100426.06;;;17.04;100.00
32320;BME280;19080;51.750;5.888;2023-07-29T01:28:58;100444.63;;;17.15;100.00
32320;BME280;19080;51.750;5.888;2023-07-29T01:31:34;100389.03;;;16.75;100.00
32320;BME280;19080;51.750;5.888;2023-07-29T01:34:17;100446.56;;;17.07;100.00
32320;BME280;19080;51.750;5.888;2023-07-29T01:36:47;100435.09;;;16.99;100.00
32320;BME280;19080;51.750;5.888;2023-07-29T01:39:16;100421.00;;;16.87;100.00
32320;BME280;19080;51.750;5.888;2023-07-29T01:41:44;100451.97;;;17.05;100.00
32320;BME280;19080;51.750;5.888;2023-07-29T01:44:12;100432.50;;;16.94;100.00
32320;BME280;19080;51.750;5.888;2023-07-29T01:46:40;100436.03;;;16.96;100.00
32320;BME280;19080;51.750;5.888;2023-07-29T01:49:06;100422.59;;;16.98;100.00
32320;BME280;19080;51.750;5.888;2023-07-29T01:51:33;100432.38;;;17.02;100.00
32320;BME280;19080;51.750;5.888;2023-07-29T01:54:00;100452.56;;;17.21;100.00
32320;BME280;19080;51.750;5.888;2023-07-29T01:56:28;100453.31;;;17.29;100.00
32320;BME280;19080;51.750;5.888;2023-07-29T01:58:55;100436.59;;;17.15;100.00
32320;BME280;19080;51.750;5.888;2023-07-29T02:01:24;100425.03;;;17.11;100.00
32320;BME280;19080;51.750;5.888;2023-07-29T02:03:51;100431.22;;;17.15;100.00
32320;BME280;19080;51.750;5.888;2023-07-29T02:06:22;100432.88;;;17.22;100.00
32320;BME280;19080;51.750;5.888;2023-07-29T02:08:49;100429.22;;;17.26;100.00
32320;BME280;19080;51.750;5.888;2023-07-29T02:11:15;100438.00;;;17.34;100.00
32320;BME280;19080;51.750;5.888;2023-07-29T02:13:42;100438.06;;;17.33;100.00
32320;BME280;19080;51.750;5.888;2023-07-29T02:16:09;100439.59;;;17.44;100.00
32320;BME280;19080;51.750;5.888;2023-07-29T02:18:35;100439.34;;;17.56;100.00
32320;BME280;19080;51.750;5.888;2023-07-29T02:21:02;100457.75;;;17.76;100.00
32320;BME280;19080;51.750;5.888;2023-07-29T02:23:29;100449.81;;;17.72;100.00
32320;BME280;19080;51.750;5.888;2023-07-29T02:25:56;100437.22;;;17.74;100.00
32320;BME280;19080;51.750;5.888;2023-07-29T02:28:23;100457.38;;;17.95;100.00
32320;BME280;19080;51.750;5.888;2023-07-29T02:31:09;100431.63;;;17.86;100.00
32320;BME280;19080;51.750;5.888;2023-07-29T02:33:36;100459.03;;;18.02;100.00
32320;BME280;19080;51.750;5.888;2023-07-29T02:36:03;100464.38;;;18.03;100.00
32320;BME280;19080;51.750;5.888;2023-07-29T02:38:30;100439.50;;;17.94;100.00
32320;BME280;19080;51.750;5.888;2023-07-29T02:40:56;100438.38;;;18.04;100.00
32320;BME280;19080;51.750;5.888;2023-07-29T02:43:23;100450.66;;;18.15;100.00
32320;BME280;19080;51.750;5.888;2023-07-29T02:45:50;100436.44;;;18.10;100.00
32320;BME280;19080;51.750;5.888;2023-07-29T02:48:16;100427.34;;;18.17;100.00
32320;BME280;19080;51.750;5.888;2023-07-29T02:50:43;100426.34;;;18.21;100.00
32320;BME280;19080;51.750;5.888;2023-07-29T02:53:10;100443.31;;;18.24;100.00
32320;BME280;19080;51.750;5.888;2023-07-29T02:55:40;100460.78;;;18.43;100.00
32320;BME280;19080;51.750;5.888;2023-07-29T02:58:07;100443.09;;;18.33;100.00
32320;BME280;19080;51.750;5.888;2023-07-29T03:00:34;100439.44;;;18.37;100.00
32320;BME280;19080;51.750;5.888;2023-07-29T03:03:02;100437.59;;;18.39;100.00
32320;BME280;19080;51.750;5.888;2023-07-29T03:05:29;100436.56;;;18.44;100.00
32320;BME280;19080;51.750;5.888;2023-07-29T03:07:57;100456.13;;;18.51;100.00
32320;BME280;19080;51.750;5.888;2023-07-29T03:10:24;100443.72;;;18.45;100.00
32320;BME280;19080;51.750;5.888;2023-07-29T03:12:54;100429.44;;;18.43;100.00
32320;BME280;19080;51.750;5.888;2023-07-29T03:15:26;100428.69;;;18.37;100.00
32320;BME280;19080;51.750;5.888;2023-07-29T03:17:53;100431.50;;;18.31;100.00
32320;BME280;19080;51.750;5.888;2023-07-29T03:20:19;100388.44;;;17.95;100.00
32320;BME280;19080;51.750;5.888;2023-07-29T03:22:46;100444.25;;;18.23;100.00
32320;BME280;19080;51.750;5.888;2023-07-29T03:25:14;100413.47;;;17.97;100.00
32320;BME280;19080;51.750;5.888;2023-07-29T03:27:41;100434.69;;;18.09;100.00
32320;BME280;19080;51.750;5.888;2023-07-29T03:30:09;100420.69;;;17.95;100.00
32320;BME280;19080;51.750;5.888;2023-07-29T03:32:40;100434.94;;;17.97;100.00
32320;BME280;19080;51.750;5.888;2023-07-29T03:35:07;100413.88;;;17.79;100.00
32320;BME280;19080;51.750;5.888;2023-07-29T03:37:34;100437.84;;;17.88;100.00
32320;BME280;19080;51.750;5.888;2023-07-29T03:40:01;100405.19;;;17.65;100.00
32320;BME280;19080;51.750;5.888;2023-07-29T03:42:31;100424.78;;;17.70;100.00
32320;BME280;19080;51.750;5.888;2023-07-29T03:44:57;100431.88;;;17.74;100.00
32320;BME280;19080;51.750;5.888;2023-07-29T03:47:24;100350.66;;;17.21;100.00
32320;BME280;19080;51.750;5.888;2023-07-29T03:49:52;100440.97;;;17.67;100.00
32320;BME280;19080;51.750;5.888;2023-07-29T03:52:21;100428.66;;;17.53;100.00
32320;BME280;19080;51.750;5.888;2023-07-29T03:54:48;100437.56;;;17.55;100.00
32320;BME280;19080;51.750;5.888;2023-07-29T03:57:14;100436.03;;;17.42;100.00
32320;BME280;19080;51.750;5.888;2023-07-29T03:59:41;100450.19;;;17.50;100.00
32320;BME280;19080;51.750;5.888;2023-07-29T04:02:08;100449.38;;;17.47;100.00
32320;BME280;19080;51.750;5.888;2023-07-29T04:04:34;100420.28;;;17.27;100.00
32320;BME280;19080;51.750;5.888;2023-07-29T04:07:01;100451.38;;;17.36;100.00
32320;BME280;19080;51.750;5.888;2023-07-29T04:09:28;100260.53;;;16.17;100.00
32320;BME280;19080;51.750;5.888;2023-07-29T04:11:55;100435.66;;;17.17;100.00
32320;BME280;19080;51.750;5.888;2023-07-29T04:14:21;100432.94;;;17.19;100.00
32320;BME280;19080;51.750;5.888;2023-07-29T04:16:48;100424.03;;;17.17;100.00
32320;BME280;19080;51.750;5.888;2023-07-29T04:19:16;100447.97;;;17.28;100.00
32320;BME280;19080;51.750;5.888;2023-07-29T04:21:42;100434.69;;;17.21;100.00
32320;BME280;19080;51.750;5.888;2023-07-29T04:24:10;100407.19;;;17.10;100.00
32320;BME280;19080;51.750;5.888;2023-07-29T04:26:38;100398.25;;;17.10;100.00
32320;BME280;19080;51.750;5.888;2023-07-29T04:29:05;100381.34;;;17.05;100.00
32320;BME280;19080;51.750;5.888;2023-07-29T04:31:32;100405.38;;;17.11;100.00
32320;BME280;19080;51.750;5.888;2023-07-29T04:33:59;100373.50;;;16.94;100.00
32320;BME280;19080;51.750;5.888;2023-07-29T04:36:25;100408.09;;;17.09;100.00
32320;BME280;19080;51.750;5.888;2023-07-29T04:38:52;100427.59;;;17.19;100.00
32320;BME280;19080;51.750;5.888;2023-07-29T04:41:19;100424.88;;;17.20;100.00
32320;BME280;19080;51.750;5.888;2023-07-29T04:43:45;100405.41;;;17.09;100.00
32320;BME280;19080;51.750;5.888;2023-07-29T04:46:12;100440.88;;;17.25;100.00
32320;BME280;19080;51.750;5.888;2023-07-29T04:48:39;100443.59;;;17.23;100.00
32320;BME280;19080;51.750;5.888;2023-07-29T04:51:06;100444.66;;;17.13;100.00
32320;BME280;19080;51.750;5.888;2023-07-29T04:53:33;100479.34;;;17.24;100.00
32320;BME280;19080;51.750;5.888;2023-07-29T04:56:01;100476.50;;;17.33;100.00
32320;BME280;19080;51.750;5.888;2023-07-29T04:58:28;100460.44;;;17.30;100.00
32320;BME280;19080;51.750;5.888;2023-07-29T05:00:57;100473.56;;;17.45;100.00
32320;BME280;19080;51.750;5.888;2023-07-29T05:03:24;100470.75;;;17.51;100.00
32320;BME280;19080;51.750;5.888;2023-07-29T05:05:51;100480.38;;;17.63;100.00
32320;BME280;19080;51.750;5.888;2023-07-29T05:08:19;100468.56;;;17.73;100.00
32320;BME280;19080;51.750;5.888;2023-07-29T05:10:50;100481.66;;;17.90;100.00
32320;BME280;19080;51.750;5.888;2023-07-29T05:13:17;100416.84;;;17.64;100.00
32320;BME280;19080;51.750;5.888;2023-07-29T05:15:44;100447.59;;;17.92;100.00
32320;BME280;19080;51.750;5.888;2023-07-29T05:18:11;100444.66;;;18.04;100.00
32320;BME280;19080;51.750;5.888;2023-07-29T05:20:38;100479.03;;;18.29;100.00
32320;BME280;19080;51.750;5.888;2023-07-29T05:23:05;100462.84;;;18.32;100.00
32320;BME280;19080;51.750;5.888;2023-07-29T05:25:32;100459.38;;;18.27;100.00
32320;BME280;19080;51.750;5.888;2023-07-29T05:28:01;100490.22;;;18.49;100.00
32320;BME280;19080;51.750;5.888;2023-07-29T05:30:29;100335.50;;;17.60;100.00
32320;BME280;19080;51.750;5.888;2023-07-29T05:33:00;100475.22;;;18.39;100.00
32320;BME280;19080;51.750;5.888;2023-07-29T05:35:27;100463.72;;;18.32;100.00
32320;BME280;19080;51.750;5.888;2023-07-29T05:37:54;100478.91;;;18.35;100.00
32320;BME280;19080;51.750;5.888;2023-07-29T05:40:21;100502.03;;;18.42;100.00
32320;BME280;19080;51.750;5.888;2023-07-29T05:42:47;100493.19;;;18.37;100.00
32320;BME280;19080;51.750;5.888;2023-07-29T05:45:14;100459.66;;;18.14;100.00
32320;BME280;19080;51.750;5.888;2023-07-29T05:47:41;100466.59;;;18.25;100.00
32320;BME280;19080;51.750;5.888;2023-07-29T05:50:08;100519.53;;;18.60;100.00
32320;BME280;19080;51.750;5.888;2023-07-29T05:52:35;100481.34;;;18.45;100.00
32320;BME280;19080;51.750;5.888;2023-07-29T05:55:02;100506.81;;;18.69;100.00
32320;BME280;19080;51.750;5.888;2023-07-29T05:57:31;100480.09;;;18.60;100.00
32320;BME280;19080;51.750;5.888;2023-07-29T05:59:57;100503.13;;;18.73;100.00
32320;BME280;19080;51.750;5.888;2023-07-29T06:02:25;100494.97;;;18.76;100.00
32320;BME280;19080;51.750;5.888;2023-07-29T06:04:52;100492.28;;;18.76;100.00
32320;BME280;19080;51.750;5.888;2023-07-29T06:07:19;100490.44;;;18.78;100.00
32320;BME280;19080;51.750;5.888;2023-07-29T06:09:46;100475.34;;;18.73;100.00
32320;BME280;19080;51.750;5.888;2023-07-29T06:12:12;100488.47;;;18.87;100.00
32320;BME280;19080;51.750;5.888;2023-07-29T06:14:39;100489.84;;;19.03;100.00
32320;BME280;19080;51.750;5.888;2023-07-29T06:17:09;100500.34;;;19.12;100.00
32320;BME280;19080;51.750;5.888;2023-07-29T06:19:38;100465.59;;;19.04;100.00
32320;BME280;19080;51.750;5.888;2023-07-29T06:22:05;100487.34;;;19.29;100.00
32320;BME280;19080;51.750;5.888;2023-07-29T06:24:32;100476.09;;;19.47;100.00
32320;BME280;19080;51.750;5.888;2023-07-29T06:26:59;100475.72;;;19.94;100.00
32320;BME280;19080;51.750;5.888;2023-07-29T06:29:26;100502.91;;;20.74;100.00
32320;BME280;19080;51.750;5.888;2023-07-29T06:31:52;100486.63;;;20.77;100.00
32320;BME280;19080;51.750;5.888;2023-07-29T06:34:19;100503.94;;;21.25;100.00
32320;BME280;19080;51.750;5.888;2023-07-29T06:36:47;100491.13;;;21.31;100.00
32320;BME280;19080;51.750;5.888;2023-07-29T06:39:14;100485.75;;;21.81;100.00
32320;BME280;19080;51.750;5.888;2023-07-29T06:41:40;100500.13;;;22.06;100.00
32320;BME280;19080;51.750;5.888;2023-07-29T06:44:08;100439.72;;;21.59;100.00
32320;BME280;19080;51.750;5.888;2023-07-29T06:46:34;100491.09;;;22.07;100.00
32320;BME280;19080;51.750;5.888;2023-07-29T06:49:01;100497.84;;;21.94;100.00
32320;BME280;19080;51.750;5.888;2023-07-29T06:51:28;100497.25;;;21.86;100.00
32320;BME280;19080;51.750;5.888;2023-07-29T06:53:58;100507.41;;;22.04;100.00
32320;BME280;19080;51.750;5.888;2023-07-29T06:56:26;100493.09;;;22.02;100.00
32320;BME280;19080;51.750;5.888;2023-07-29T06:58:53;100509.06;;;22.08;100.00
32320;BME280;19080;51.750;5.888;2023-07-29T07:01:44;100520.66;;;22.12;100.00
32320;BME280;19080;51.750;5.888;2023-07-29T07:04:11;100517.94;;;21.87;100.00
32320;BME280;19080;51.750;5.888;2023-07-29T07:06:38;100519.97;;;21.56;100.00
32320;BME280;19080;51.750;5.888;2023-07-29T07:09:04;100444.19;;;21.09;100.00
32320;BME280;19080;51.750;5.888;2023-07-29T07:11:31;100480.09;;;21.37;100.00
32320;BME280;19080;51.750;5.888;2023-07-29T07:13:59;100482.38;;;21.50;100.00
32320;BME280;19080;51.750;5.888;2023-07-29T07:16:26;100483.00;;;21.58;100.00
32320;BME280;19080;51.750;5.888;2023-07-29T07:18:57;100511.06;;;21.79;100.00
32320;BME280;19080;51.750;5.888;2023-07-29T07:21:23;100505.72;;;22.25;100.00
32320;BME280;19080;51.750;5.888;2023-07-29T07:23:50;100500.13;;;22.53;100.00
32320;BME280;19080;51.750;5.888;2023-07-29T07:26:17;100497.72;;;22.67;100.00
32320;BME280;19080;51.750;5.888;2023-07-29T07:28:44;100493.00;;;22.72;100.00
32320;BME280;19080;51.750;5.888;2023-07-29T07:31:10;100507.44;;;22.51;100.00
32320;BME280;19080;51.750;5.888;2023-07-29T07:33:38;100507.44;;;22.28;100.00
32320;BME280;19080;51.750;5.888;2023-07-29T07:36:05;100509.19;;;22.52;100.00
32320;BME280;19080;51.750;5.888;2023-07-29T07:38:31;100533.97;;;22.63;100.00
32320;BME280;19080;51.750;5.888;2023-07-29T07:40:58;100519.38;;;22.91;100.00
32320;BME280;19080;51.750;5.888;2023-07-29T07:43:25;100532.00;;;23.12;100.00
32320;BME280;19080;51.750;5.888;2023-07-29T07:45:57;100526.81;;;23.50;100.00
32320;BME280;19080;51.750;5.888;2023-07-29T07:48:26;100528.47;;;23.94;100.00
32320;BME280;19080;51.750;5.888;2023-07-29T07:50:56;100507.53;;;23.98;100.00
32320;BME280;19080;51.750;5.888;2023-07-29T07:53:23;100526.63;;;24.15;100.00
32320;BME280;19080;51.750;5.888;2023-07-29T07:55:52;100511.88;;;23.82;100.00
32320;BME280;19080;51.750;5.888;2023-07-29T07:58:19;100513.03;;;23.76;100.00
32320;BME280;19080;51.750;5.888;2023-07-29T08:00:45;100529.69;;;23.87;100.00
32320;BME280;19080;51.750;5.888;2023-07-29T08:03:12;100509.38;;;23.77;100.00
32320;BME280;19080;51.750;5.888;2023-07-29T08:05:39;100502.94;;;23.59;100.00
32320;BME280;19080;51.750;5.888;2023-07-29T08:08:05;100522.41;;;23.47;100.00
32320;BME280;19080;51.750;5.888;2023-07-29T08:10:34;100528.09;;;23.19;100.00
32320;BME280;19080;51.750;5.888;2023-07-29T08:13:01;100545.84;;;22.83;100.00
32320;BME280;19080;51.750;5.888;2023-07-29T08:15:28;100532.53;;;22.31;100.00
32320;BME280;19080;51.750;5.888;2023-07-29T08:17:54;100519.88;;;22.08;100.00
32320;BME280;19080;51.750;5.888;2023-07-29T08:20:21;100530.69;;;22.08;100.00
32320;BME280;19080;51.750;5.888;2023-07-29T08:22:48;100533.66;;;22.01;100.00
32320;BME280;19080;51.750;5.888;2023-07-29T08:25:14;100512.81;;;22.04;100.00
32320;BME280;19080;51.750;5.888;2023-07-29T08:27:41;100512.72;;;22.07;100.00
32320;BME280;19080;51.750;5.888;2023-07-29T08:30:08;100507.84;;;22.17;100.00
32320;BME280;19080;51.750;5.888;2023-07-29T08:32:35;100526.31;;;22.53;100.00
32320;BME280;19080;51.750;5.888;2023-07-29T08:35:03;100522.31;;;22.61;100.00
32320;BME280;19080;51.750;5.888;2023-07-29T08:37:30;100458.75;;;22.51;100.00
32320;BME280;19080;51.750;5.888;2023-07-29T08:39:57;100531.88;;;23.15;100.00
32320;BME280;19080;51.750;5.888;2023-07-29T08:42:28;100519.81;;;23.44;100.00
32320;BME280;19080;51.750;5.888;2023-07-29T08:44:56;100477.50;;;23.42;100.00
32320;BME280;19080;51.750;5.888;2023-07-29T08:47:23;100549.88;;;24.21;100.00
32320;BME280;19080;51.750;5.888;2023-07-29T08:49:51;100540.25;;;24.14;100.00
32320;BME280;19080;51.750;5.888;2023-07-29T08:52:19;100524.22;;;24.28;100.00
32320;BME280;19080;51.750;5.888;2023-07-29T08:54:46;100539.13;;;24.57;100.00
32320;BME280;19080;51.750;5.888;2023-07-29T08:57:15;100534.00;;;24.70;100.00
32320;BME280;19080;51.750;5.888;2023-07-29T08:59:42;100485.75;;;24.57;100.00
32320;BME280;19080;51.750;5.888;2023-07-29T09:02:09;100544.34;;;24.80;100.00
32320;BME280;19080;51.750;5.888;2023-07-29T09:04:35;100542.97;;;24.72;100.00
32320;BME280;19080;51.750;5.888;2023-07-29T09:07:02;100557.78;;;24.64;100.00
32320;BME280;19080;51.750;5.888;2023-07-29T09:09:29;100476.00;;;23.95;100.00
32320;BME280;19080;51.750;5.888;2023-07-29T09:11:56;100556.59;;;24.51;100.00
32320;BME280;19080;51.750;5.888;2023-07-29T09:14:24;100507.31;;;24.42;100.00
32320;BME280;19080;51.750;5.888;2023-07-29T09:16:50;100538.78;;;25.02;100.00
32320;BME280;19080;51.750;5.888;2023-07-29T09:19:18;100536.44;;;25.30;100.00
32320;BME280;19080;51.750;5.888;2023-07-29T09:21:46;100541.56;;;26.06;100.00
32320;BME280;19080;51.750;5.888;2023-07-29T09:24:16;100492.97;;;26.00;97.81
32320;BME280;19080;51.750;5.888;2023-07-29T09:26:51;100534.72;;;26.65;94.92
32320;BME280;19080;51.750;5.888;2023-07-29T09:29:23;100531.47;;;26.58;93.33
32320;BME280;19080;51.750;5.888;2023-07-29T09:31:50;100522.22;;;26.45;91.97
32320;BME280;19080;51.750;5.888;2023-07-29T09:34:17;100462.06;;;26.01;93.27
32320;BME280;19080;51.750;5.888;2023-07-29T09:36:44;100528.72;;;26.42;91.76
32320;BME280;19080;51.750;5.888;2023-07-29T09:39:11;100455.81;;;25.83;92.36
32320;BME280;19080;51.750;5.888;2023-07-29T09:41:39;100448.56;;;26.15;89.17
32320;BME280;19080;51.750;5.888;2023-07-29T09:44:06;100418.94;;;26.26;89.30
32320;BME280;19080;51.750;5.888;2023-07-29T09:46:35;100456.00;;;27.07;89.26
32320;BME280;19080;51.750;5.888;2023-07-29T09:49:04;100503.97;;;28.00;77.23
32320;BME280;19080;51.750;5.888;2023-07-29T09:51:37;100499.88;;;28.78;70.90
32320;BME280;19080;51.750;5.888;2023-07-29T09:54:04;100500.06;;;28.75;70.27
32320;BME280;19080;51.750;5.888;2023-07-29T09:56:31;100500.38;;;28.85;68.11
32320;BME280;19080;51.750;5.888;2023-07-29T09:58:57;100480.28;;;28.86;65.11
32320;BME280;19080;51.750;5.888;2023-07-29T10:01:24;100502.19;;;28.98;65.52
32320;BME280;19080;51.750;5.888;2023-07-29T10:03:51;100505.97;;;29.10;64.93
32320;BME280;19080;51.750;5.888;2023-07-29T10:06:19;100513.16;;;28.70;65.13
32320;BME280;19080;51.750;5.888;2023-07-29T10:08:47;100514.16;;;28.26;66.63
32320;BME280;19080;51.750;5.888;2023-07-29T10:11:14;100477.66;;;27.70;69.76
32320;BME280;19080;51.750;5.888;2023-07-29T10:13:40;100486.72;;;27.71;71.59
32320;BME280;19080;51.750;5.888;2023-07-29T10:16:11;100477.97;;;27.50;73.76
32320;BME280;19080;51.750;5.888;2023-07-29T10:18:39;100488.59;;;27.25;72.07
32320;BME280;19080;51.750;5.888;2023-07-29T10:21:07;100520.34;;;27.10;75.34
32320;BME280;19080;51.750;5.888;2023-07-29T10:23:38;100517.34;;;27.14;78.32
32320;BME280;19080;51.750;5.888;2023-07-29T10:26:10;100490.72;;;27.19;79.03
32320;BME280;19080;51.750;5.888;2023-07-29T10:28:40;100449.66;;;27.22;74.88
32320;BME280;19080;51.750;5.888;2023-07-29T10:31:08;100496.34;;;27.91;70.43
32320;BME280;19080;51.750;5.888;2023-07-29T10:33:36;100509.78;;;27.79;67.86
32320;BME280;19080;51.750;5.888;2023-07-29T10:36:04;100515.03;;;27.38;69.77
32320;BME280;19080;51.750;5.888;2023-07-29T10:38:31;100511.69;;;27.33;73.55
32320;BME280;19080;51.750;5.888;2023-07-29T10:40:59;100493.31;;;27.37;74.33
32320;BME280;19080;51.750;5.888;2023-07-29T10:43:35;100442.25;;;27.25;73.98
32320;BME280;19080;51.750;5.888;2023-07-29T10:46:19;100484.69;;;28.03;67.23
32320;BME280;19080;51.750;5.888;2023-07-29T10:51:29;100495.41;;;29.45;63.89
32320;BME280;19080;51.750;5.888;2023-07-29T10:54:01;100403.91;;;30.00;60.75
32320;BME280;19080;51.750;5.888;2023-07-29T10:56:33;100474.81;;;30.66;57.28
32320;BME280;19080;51.750;5.888;2023-07-29T11:02:11;100494.56;;;30.46;55.92
32320;BME280;19080;51.750;5.888;2023-07-29T11:04:50;100492.59;;;30.35;56.16
32320;BME280;19080;51.750;5.888;2023-07-29T11:07:19;100469.16;;;29.80;56.57
32320;BME280;19080;51.750;5.888;2023-07-29T11:12:38;100498.06;;;29.05;58.93
32320;BME280;19080;51.750;5.888;2023-07-29T11:15:15;100500.59;;;28.53;60.84
32320;BME280;19080;51.750;5.888;2023-07-29T11:17:50;100447.25;;;28.19;62.97
32320;BME280;19080;51.750;5.888;2023-07-29T11:20:20;100482.53;;;28.65;64.30
32320;BME280;19080;51.750;5.888;2023-07-29T11:22:48;100466.91;;;28.67;63.83
32320;BME280;19080;51.750;5.888;2023-07-29T11:25:17;100479.19;;;28.88;62.35
32320;BME280;19080;51.750;5.888;2023-07-29T11:27:44;100475.00;;;28.82;61.04
32320;BME280;19080;51.750;5.888;2023-07-29T11:30:13;100372.84;;;27.60;62.02
32320;BME280;19080;51.750;5.888;2023-07-29T11:32:42;100410.44;;;27.25;64.50
32320;BME280;19080;51.750;5.888;2023-07-29T11:35:12;100462.50;;;27.20;67.30
32320;BME280;19080;51.750;5.888;2023-07-29T11:37:43;100485.50;;;27.31;70.24
32320;BME280;19080;51.750;5.888;2023-07-29T11:40:14;100475.16;;;27.21;75.78
32320;BME280;19080;51.750;5.888;2023-07-29T11:42:41;100472.81;;;27.00;76.80
32320;BME280;19080;51.750;5.888;2023-07-29T11:45:08;100479.38;;;26.80;72.63
32320;BME280;19080;51.750;5.888;2023-07-29T11:47:36;100485.88;;;26.46;77.88
32320;BME280;19080;51.750;5.888;2023-07-29T11:50:08;100503.59;;;26.37;82.07
32320;BME280;19080;51.750;5.888;2023-07-29T11:52:41;100508.69;;;26.43;82.74
32320;BME280;19080;51.750;5.888;2023-07-29T11:55:12;100510.44;;;26.44;84.39
32320;BME280;19080;51.750;5.888;2023-07-29T11:57:39;100449.88;;;26.08;82.35
32320;BME280;19080;51.750;5.888;2023-07-29T12:00:08;100427.25;;;25.91;84.04
32320;BME280;19080;51.750;5.888;2023-07-29T12:02:39;100496.91;;;25.94;84.68
32320;BME280;19080;51.750;5.888;2023-07-29T12:05:08;100554.78;;;25.44;91.49
32320;BME280;19080;51.750;5.888;2023-07-29T12:07:38;100554.56;;;23.34;100.00
32320;BME280;19080;51.750;5.888;2023-07-29T12:10:06;100517.78;;;21.67;100.00
32320;BME280;19080;51.750;5.888;2023-07-29T12:12:40;100541.06;;;20.31;100.00
32320;BME280;19080;51.750;5.888;2023-07-29T12:15:10;100543.78;;;19.68;100.00
32320;BME280;19080;51.750;5.888;2023-07-29T12:17:41;100457.56;;;18.67;100.00
32320;BME280;19080;51.750;5.888;2023-07-29T12:20:10;100508.63;;;18.67;100.00
32320;BME280;19080;51.750;5.888;2023-07-29T12:22:37;100519.72;;;18.52;100.00
32320;BME280;19080;51.750;5.888;2023-07-29T12:25:04;100508.16;;;18.48;100.00
32320;BME280;19080;51.750;5.888;2023-07-29T12:27:31;100540.84;;;18.70;100.00
32320;BME280;19080;51.750;5.888;2023-07-29T12:30:01;100510.59;;;18.59;100.00
32320;BME280;19080;51.750;5.888;2023-07-29T12:32:30;100543.66;;;18.64;100.00
32320;BME280;19080;51.750;5.888;2023-07-29T12:34:57;100553.44;;;18.68;100.00
32320;BME280;19080;51.750;5.888;2023-07-29T12:37:33;100556.38;;;18.54;100.00
32320;BME280;19080;51.750;5.888;2023-07-29T12:40:01;100554.81;;;18.44;100.00
32320;BME280;19080;51.750;5.888;2023-07-29T12:42:28;100578.97;;;18.46;100.00
32320;BME280;19080;51.750;5.888;2023-07-29T12:44:55;100548.75;;;18.35;100.00
32320;BME280;19080;51.750;5.888;2023-07-29T12:47:22;100550.41;;;18.42;100.00
32320;BME280;19080;51.750;5.888;2023-07-29T12:49:48;100573.22;;;18.64;100.00
32320;BME280;19080;51.750;5.888;2023-07-29T12:52:15;100576.66;;;18.71;100.00
32320;BME280;19080;51.750;5.888;2023-07-29T12:54:41;100563.22;;;18.71;100.00
32320;BME280;19080;51.750;5.888;2023-07-29T12:57:10;100570.16;;;18.81;100.00
32320;BME280;19080;51.750;5.888;2023-07-29T12:59:37;100572.66;;;18.90;100.00
32320;BME280;19080;51.750;5.888;2023-07-29T13:02:04;100556.41;;;18.95;100.00